Block Island, Rhode Island
Current Conditions -  °F | °C
As of 7:55 PM on Friday 28 Nov 2014 (Local Time) from KBID Reporting Station
Clear Clear  
Wind Chill: 19°   Ceiling: Unl
Heat Index: 30°   Visibility: 10mi
Dew Point: 12°   Wind: 15mph
Humidity: 47%   Direction: 340°NNW
Pressure: 30.18"   Gusts: 22mph
Location:  41.17°N, 71.58°W
Report Text: KBID 290055Z AUTO 34013G19KT 10SM CLR M01/M11 A3018 RMK AO1
Loading
Personal Weather Stations






























Interactive Weather Map New forecast layout! Learn more

10-Day Weather Forecast

Advertisements
Track Severe Weather on mobile